CST,Max TemperatureF,Mean TemperatureF,Min TemperatureF,Max Dew PointF,MeanDew PointF,Min DewpointF,Max Humidity, Mean Humidity, Min Humidity, Max Sea Level PressureIn, Mean Sea Level PressureIn, Min Sea Level PressureIn, Max VisibilityMiles, Mean VisibilityMiles, Min VisibilityMiles, Max Wind SpeedMPH, Mean Wind SpeedMPH, Max Gust SpeedMPH,PrecipitationIn, CloudCover, Events, WindDirDegrees
2012-2-1,59,44,28,34,28,26,85,58,30,30.17,30.13,30.08,10,10,10,13,5,16,0.00,0,,261
2012-2-2,56,43,29,31,27,23,75,54,32,30.28,30.23,30.16,10,10,10,8,4,,0.00,0,,105
2012-2-3,43,39,35,37,35,31,100,81,62,30.34,30.23,30.13,10,5,2,25,11,36,0.49,7,Rain,62
2012-2-4,36,34,32,34,32,30,100,95,89,30.30,30.17,30.06,10,4,1,28,15,33,0.39,8,Rain-Snow,34
2012-2-5,33,28,23,29,26,23,100,89,78,30.40,30.36,30.32,10,8,0,15,8,22,0.00,5,Fog,329
2012-2-6,44,33,22,33,26,21,100,79,58,30.33,30.25,30.18,10,5,0,14,7,16,0.00,3,Fog,254
2012-2-7,34,32,29,30,28,26,100,88,75,30.47,30.33,30.21,10,4,1,16,9,20,0.02,7,Rain-Snow,17
2012-2-8,29,23,17,26,20,13,92,86,80,30.50,30.46,30.42,10,10,9,14,7,23,0.00,6,,338
2012-2-9,34,26,17,28,24,12,85,80,75,30.40,30.18,30.04,10,10,9,15,7,18,0.00,7,,205
2012-2-10,33,21,8,29,12,-1,85,69,53,30.53,30.20,29.98,10,9,7,26,15,33,0.00,3,,318
2012-2-11,20,11,2,0,-2,-5,76,58,39,30.75,30.67,30.55,10,10,10,21,12,26,0.00,0,,317
2012-2-12,34,18,2,6,0,-4,79,51,22,30.64,30.46,30.16,10,10,10,15,8,21,0.00,2,,234
2012-2-13,31,29,26,30,25,7,100,70,39,30.13,29.91,29.75,10,3,0,23,10,31,0.22,8,Fog-Snow,173
2012-2-14,41,35,28,30,29,26,100,83,65,29.94,29.85,29.75,10,8,2,17,9,21,0.00,6,,222
2012-2-15,40,34,27,37,32,26,100,93,85,30.06,29.95,29.89,9,5,2,14,5,18,0.01,4,Rain,175
2012-2-16,45,36,26,30,25,21,100,71,41,30.27,30.21,30.09,10,8,3,17,9,21,0.00,0,,286
2012-2-17,51,40,29,32,26,22,78,55,32,30.20,30.13,30.08,10,10,10,21,12,28,0.00,1,,281
2012-2-18,41,31,20,22,19,16,84,64,44,30.29,30.22,30.17,10,10,10,14,7,18,0.00,1,,30
2012-2-19,44,33,22,25,21,18,84,62,40,30.19,30.13,30.08,10,10,10,13,5,16,0.00,1,,139
2012-2-20,48,39,29,37,29,18,86,72,57,30.12,29.89,29.62,10,10,7,29,14,41,0.12,4,Rain,146
2012-2-21,47,40,33,37,31,26,100,73,45,29.84,29.74,29.60,10,10,7,28,14,33,0.00,4,,249
2012-2-22,53,43,33,33,31,27,75,62,48,29.65,29.52,29.44,10,10,10,22,10,29,T,4,,255
2012-2-23,44,38,32,41,37,30,100,85,70,29.64,29.43,29.28,10,6,0,24,10,31,0.27,8,Fog-Rain-Snow,30
2012-2-24,32,28,23,30,25,14,92,80,68,30.22,29.96,29.63,10,7,1,30,17,36,0.03,5,Snow,304
2012-2-25,35,25,14,17,15,10,88,66,44,30.36,30.22,29.99,10,10,10,21,9,30,0.00,0,,233
2012-2-26,58,46,33,31,25,17,75,50,25,30.22,29.96,29.85,10,10,10,25,15,37,0.00,0,,248
2012-2-27,40,30,20,23,18,13,77,59,40,30.53,30.43,30.27,10,10,10,23,9,29,0.00,1,,345
2012-2-28,54,43,31,52,39,20,93,70,46,30.37,29.81,29.39,10,9,2,25,11,32,0.46,8,Rain-Thunderstorm,148
2012-2-29,55,42,28,50,29,24,86,73,59,29.87,29.64,29.39,10,10,10,40,24,53,T,3,,262